Startpagina
METAR-TAF:

METAR-TAF

Vliegvelden :

Weno, Micronesië

breedte: 07-28N, lengte: 151-51E, hoogte: 3 m

Actueel weer

Dit bericht is 27 minuten geleden gemaakt, om 20:51 UTC
Wind 3 kt uit variabele richting
Temperatuur 29°C
Vochtigheid 79%
Druk 1011 hPa
Zicht: 24.1 km
Weinig wolken op 1400 ft
Verspreide wolken op 29000 ft

METAR: PTKK 242051Z VRB03KT 15SM FEW014 SCT290 29/25 A2985 RMK SLP110 8/101 T02850245 52014

Tijdstip: 07:18 (21:18 UTC)

Verwachting

Dit bericht is 3 uur en het 45 minuten geleden gemaakt, om 17:33 UTC
Verwachting geldig van 24 om 18 UTC tot 25 om 18 UTC
Wind 4 kt uit variabele richting
Zicht: 10 km
Weinig wolken op 1400 ft
Verspreide wolken op 12000 ft

TAF: PTKK 241733Z 2418/2518 VRB04KT P6SM FEW014 SCT120

Waarnemingen en weersverwachtingen van meer dan 4000 vliegvelden (METAR en TAF).

De beschikbare stations zijn de gele en rode punten op de kaart.

Ga met uw muis naar het station om de naam te zien.

Klik dan om waarnemingen en weersverwachtingen te zien.

kaart wijzigen: klik op de groene knoppen met een zwart kruis om in te zoomen, op de groene knop met een streepje om uit te zoomen of op de groene pijlen voor aangrenzende kaarten.


METAR-TAF: